Time;durP1;ratioP1;P1;durP2;ratioP2;P2;SDS_P1;SDS_P2;PMS_P1;PMS_P2;Temp;Humidity;BMP_temperature;BMP_pressure;BME280_temperature;BME280_humidity;BME280_pressure;Samples;Min_cycle;Max_cycle;Signal;HPM_P1;HPM_P2
2023/03/02 00:01:49;;;;;;;19.83;12.10;;;205.40;2252.80;;;;;;5072607;28;20029;-81
2023/03/02 00:04:41;;;;;;;18.70;12.45;;;205.40;2252.80;;;;;;5071731;28;20025;-79
2023/03/02 00:07:11;;;;;;;25.00;15.43;;;205.40;2252.80;;;;;;5071882;28;20094;-81
2023/03/02 00:09:37;;;;;;;26.90;17.92;;;205.40;2252.80;;;;;;5072630;28;20036;-82
2023/03/02 00:12:04;;;;;;;33.85;18.27;;;205.60;2252.80;;;;;;5071662;28;20020;-83
2023/03/02 00:14:30;;;;;;;27.05;16.70;;;230.50;2252.80;;;;;;5073196;28;20035;-82
2023/03/02 00:16:55;;;;;;;20.52;12.77;;;205.40;2252.80;;;;;;5071465;28;20025;-81
2023/03/02 00:19:21;;;;;;;19.75;12.18;;;205.50;2252.80;;;;;;5073466;28;20032;-80
2023/03/02 00:21:47;;;;;;;23.05;14.02;;;205.40;2252.80;;;;;;5072333;28;20029;-82
2023/03/02 00:24:14;;;;;;;21.80;13.65;;;205.40;2252.80;;;;;;5073431;28;20385;-81
2023/03/02 00:26:40;;;;;;;28.92;16.77;;;205.30;2252.80;;;;;;5072129;28;20029;-79
2023/03/02 00:29:06;;;;;;;34.25;21.00;;;205.30;2252.80;;;;;;5072121;28;20040;-81
2023/03/02 00:31:32;;;;;;;30.42;18.48;;;205.20;2252.80;;;;;;5072299;28;20458;-79
2023/03/02 00:33:58;;;;;;;24.30;16.33;;;205.20;2252.80;;;;;;5071927;28;20028;-81
2023/03/02 00:36:24;;;;;;;18.50;13.43;;;205.10;2252.80;;;;;;5073577;28;20039;-81
2023/03/02 00:38:53;;;;;;;16.42;10.30;;;205.10;2252.80;;;;;;5072193;28;20387;-82
2023/03/02 00:41:20;;;;;;;16.63;10.68;;;205.00;2252.80;;;;;;5071804;28;20393;-78
2023/03/02 00:43:46;;;;;;;17.73;10.65;;;204.90;2252.80;;;;;;5071884;28;20031;-80
2023/03/02 00:46:14;;;;;;;19.95;11.40;;;204.90;2252.80;;;;;;5071932;28;20116;-80
2023/03/02 00:48:40;;;;;;;18.15;13.02;;;205.00;2252.80;;;;;;5071647;28;20493;-81
2023/03/02 00:51:07;;;;;;;19.63;12.55;;;205.00;2252.80;;;;;;5072035;28;20055;-80
2023/03/02 00:53:34;;;;;;;23.27;16.35;;;205.20;2252.80;;;;;;5071883;28;20031;-81
2023/03/02 00:56:01;;;;;;;25.17;17.08;;;205.00;2252.80;;;;;;5072722;28;20024;-80
2023/03/02 00:58:27;;;;;;;26.05;17.70;;;205.00;2252.80;;;;;;5071844;28;20469;-80
2023/03/02 01:00:53;;;;;;;20.77;13.85;;;204.90;2252.80;;;;;;5072001;28;20032;-81
2023/03/02 01:03:19;;;;;;;18.38;12.27;;;205.10;2252.80;;;;;;5071545;28;20115;-82
2023/03/02 01:05:45;;;;;;;19.13;12.85;;;205.10;2252.80;;;;;;5073866;28;20025;-81
2023/03/02 01:08:11;;;;;;;17.65;14.10;;;205.10;2252.80;;;;;;5075173;28;20072;-81
2023/03/02 01:10:38;;;;;;;19.05;12.10;;;205.20;2252.80;;;;;;5075141;28;20025;-80
2023/03/02 01:13:05;;;;;;;22.38;13.82;;;205.00;2252.80;;;;;;5075544;28;20028;-81
2023/03/02 01:15:31;;;;;;;16.30;10.60;;;205.00;2252.80;;;;;;5074951;28;20021;-79
2023/03/02 01:17:59;;;;;;;13.93;8.63;;;204.80;2252.80;;;;;;5075186;28;20033;-80
2023/03/02 01:20:26;;;;;;;13.18;9.13;;;179.90;2252.80;;;;;;5076412;28;20029;-81
2023/03/02 01:22:52;;;;;;;13.00;9.00;;;180.10;2252.80;;;;;;5074878;28;20122;-80
2023/03/02 01:25:18;;;;;;;16.95;11.77;;;180.10;2252.80;;;;;;5075160;28;20029;-82
2023/03/02 01:27:43;;;;;;;20.00;12.57;;;204.80;2252.80;;;;;;5076429;28;20029;-81
2023/03/02 01:30:10;;;;;;;18.10;11.93;;;204.80;2252.80;;;;;;5074780;28;20123;-80
2023/03/02 01:32:35;;;;;;;19.17;13.63;;;204.90;2252.80;;;;;;5074919;28;20025;-80
2023/03/02 01:35:01;;;;;;;17.83;14.25;;;205.00;2252.80;;;;;;5074980;28;20476;-79
2023/03/02 01:37:27;;;;;;;22.75;15.90;;;204.90;2252.80;;;;;;5074515;28;20123;-80
2023/03/02 01:39:53;;;;;;;21.00;15.75;;;205.00;2252.80;;;;;;5075056;28;20028;-80
2023/03/02 01:42:18;;;;;;;19.92;14.20;;;204.90;2252.80;;;;;;5076053;28;20515;-81
2023/03/02 01:44:50;;;;;;;21.30;13.90;;;204.90;2252.80;;;;;;5074728;28;20040;-80
2023/03/02 01:47:35;;;;;;;18.95;12.90;;;204.90;2252.80;;;;;;5074631;28;20027;-78
2023/03/02 01:50:09;;;;;;;19.17;12.45;;;204.90;2252.80;;;;;;5075985;28;20027;-81
2023/03/02 01:52:39;;;;;;;18.60;13.13;;;205.00;2252.80;;;;;;5074554;28;20025;-80
2023/03/02 01:55:08;;;;;;;16.88;11.40;;;205.00;2252.80;;;;;;5074482;28;20115;-79
2023/03/02 01:57:42;;;;;;;14.18;9.95;;;204.90;2252.80;;;;;;5074188;28;20112;-81
2023/03/02 02:00:31;;;;;;;16.17;11.27;;;204.90;2252.80;;;;;;5074637;28;20040;-80
2023/03/02 02:03:12;;;;;;;20.50;12.88;;;204.90;2252.80;;;;;;5073699;28;20058;-82
2023/03/02 02:05:44;;;;;;;26.98;15.45;;;204.80;2252.80;;;;;;5074223;28;20123;-81
2023/03/02 02:08:10;;;;;;;26.20;15.27;;;180.10;2252.80;;;;;;5076848;28;20043;-81
2023/03/02 02:10:37;;;;;;;19.38;12.40;;;180.10;2252.80;;;;;;5075723;28;20025;-79
2023/03/02 02:13:03;;;;;;;19.85;12.07;;;204.80;2252.80;;;;;;5074507;28;20024;-81
2023/03/02 02:15:29;;;;;;;18.85;11.38;;;204.80;2252.80;;;;;;5074244;28;20162;-80
2023/03/02 02:17:54;;;;;;;18.77;13.70;;;204.80;2252.80;;;;;;5074155;28;20036;-81
2023/03/02 02:20:25;;;;;;;21.50;13.20;;;204.80;2252.80;;;;;;5073977;28;20541;-80
2023/03/02 02:23:11;;;;;;;23.25;15.27;;;204.90;2252.80;;;;;;5074150;28;20093;-82
2023/03/02 02:26:05;;;;;;;26.95;17.27;;;204.80;2252.80;;;;;;5073814;28;20028;-80
2023/03/02 02:28:33;;;;;;;24.48;17.73;;;204.80;2252.80;;;;;;5073407;28;20045;-80
2023/03/02 02:31:14;;;;;;;23.52;16.73;;;204.90;2252.80;;;;;;5073957;28;20055;-81
2023/03/02 02:33:44;;;;;;;32.63;22.08;;;204.80;2252.80;;;;;;5074895;28;20028;-80
2023/03/02 02:36:24;;;;;;;40.65;27.38;;;180.10;2252.80;;;;;;5075433;28;20027;-81
2023/03/02 02:38:53;;;;;;;47.78;32.92;;;180.10;2252.80;;;;;;5074524;28;20028;-79
2023/03/02 02:41:24;;;;;;;43.25;27.88;;;180.10;2252.80;;;;;;5074838;28;20024;-81
2023/03/02 02:43:50;;;;;;;47.90;29.52;;;180.00;2252.80;;;;;;5076581;28;20099;-80
2023/03/02 02:46:16;;;;;;;35.28;23.77;;;180.10;2252.80;;;;;;5075372;28;20054;-81
2023/03/02 02:48:42;;;;;;;29.27;19.23;;;204.80;2252.80;;;;;;5074758;28;20021;-83
2023/03/02 02:51:12;;;;;;;22.25;14.38;;;204.80;2252.80;;;;;;5073220;28;20052;-79
2023/03/02 02:53:58;;;;;;;22.67;13.77;;;204.90;2252.80;;;;;;5077783;28;20031;-82
2023/03/02 02:56:32;;;;;;;20.60;14.07;;;204.90;2252.80;;;;;;5074413;28;20031;-80
2023/03/02 02:59:12;;;;;;;21.15;14.32;;;204.90;2252.80;;;;;;5074495;28;20473;-81
2023/03/02 03:01:38;;;;;;;37.05;23.02;;;204.90;2252.80;;;;;;5075406;28;20107;-80
2023/03/02 03:04:05;;;;;;;42.45;27.02;;;204.90;2252.80;;;;;;5074249;28;20040;-80
2023/03/02 03:06:40;;;;;;;53.35;25.58;;;204.90;2252.80;;;;;;5074427;28;20078;-79
2023/03/02 03:09:07;;;;;;;40.05;20.08;;;204.80;2252.80;;;;;;5074159;28;20132;-82
2023/03/02 03:11:36;;;;;;;28.35;15.40;;;204.80;2252.80;;;;;;5073654;28;20025;-78
2023/03/02 03:14:12;;;;;;;33.75;18.17;;;204.90;2252.80;;;;;;5053090;28;20060;-82
2023/03/02 03:16:40;;;;;;;28.95;15.65;;;204.90;2252.80;;;;;;5052378;28;20036;-80
2023/03/02 03:19:18;;;;;;;24.80;13.82;;;205.00;2252.80;;;;;;5052994;28;20473;-81
2023/03/02 03:21:47;;;;;;;30.45;20.02;;;205.00;2252.80;;;;;;5053023;28;20033;-81
2023/03/02 03:24:12;;;;;;;28.42;18.75;;;204.90;2252.80;;;;;;5053218;28;20029;-80
2023/03/02 03:26:38;;;;;;;27.33;17.30;;;180.10;2201.60;;;;;;5052971;28;20025;-82
2023/03/02 03:29:04;;;;;;;24.38;16.95;;;180.10;2252.80;;;;;;5052264;28;20112;-80
2023/03/02 03:31:30;;;;;;;23.65;17.00;;;180.10;2252.80;;;;;;5053793;28;20477;-81
2023/03/02 03:33:59;;;;;;;21.48;15.85;;;180.10;2252.80;;;;;;5053870;28;20028;-81
2023/03/02 03:36:27;;;;;;;22.67;15.48;;;180.10;2252.80;;;;;;5052762;28;20028;-81
2023/03/02 03:38:53;;;;;;;21.35;14.68;;;180.10;2252.80;;;;;;5052690;28;20465;-80
2023/03/02 03:41:18;;;;;;;18.65;13.25;;;204.80;2252.80;;;;;;5052922;28;20040;-80
2023/03/02 03:43:44;;;;;;;19.58;12.43;;;180.10;2252.80;;;;;;5052607;28;20078;-81
2023/03/02 03:46:10;;;;;;;18.15;12.85;;;180.10;2252.80;;;;;;5052722;28;20390;-83
2023/03/02 03:48:36;;;;;;;17.73;11.77;;;204.80;2252.80;;;;;;5053902;28;20492;-80
2023/03/02 03:51:02;;;;;;;20.42;13.35;;;204.80;2252.80;;;;;;5052348;28;20034;-81
2023/03/02 03:53:27;;;;;;;23.52;15.27;;;204.90;2252.80;;;;;;5053693;28;20115;-81
2023/03/02 03:55:55;;;;;;;29.45;16.48;;;204.80;2252.80;;;;;;5052532;28;20048;-79
2023/03/02 03:58:22;;;;;;;26.13;15.57;;;180.10;2252.80;;;;;;5052207;28;20055;-81
2023/03/02 04:00:48;;;;;;;16.98;12.30;;;180.10;2252.80;;;;;;5052593;28;20036;-81
2023/03/02 04:03:15;;;;;;;32.33;19.15;;;180.10;2252.80;;;;;;5052545;28;20033;-81
2023/03/02 04:05:41;;;;;;;31.45;19.00;;;180.10;2252.80;;;;;;5052174;28;20078;-82
2023/03/02 04:08:07;;;;;;;30.98;18.35;;;180.10;2252.80;;;;;;5052119;28;20137;-79
2023/03/02 04:10:34;;;;;;;36.78;20.95;;;180.10;2252.80;;;;;;5052175;28;20043;-80
2023/03/02 04:13:00;;;;;;;30.33;19.13;;;180.00;2252.80;;;;;;5052390;28;20087;-80
2023/03/02 04:15:26;;;;;;;42.80;25.17;;;180.10;2252.80;;;;;;5053550;28;20017;-82
2023/03/02 04:17:52;;;;;;;32.92;21.25;;;180.10;2252.80;;;;;;5052283;28;20381;-81
2023/03/02 04:20:20;;;;;;;33.53;20.05;;;204.80;2252.80;;;;;;5052437;28;20025;-82
2023/03/02 04:22:48;;;;;;;30.98;18.50;;;204.80;2252.80;;;;;;5052391;28;20029;-82
2023/03/02 04:25:18;;;;;;;36.15;23.95;;;204.90;2252.80;;;;;;5051884;28;20052;-81
2023/03/02 04:27:45;;;;;;;30.85;20.27;;;205.00;2252.80;;;;;;5052399;28;20123;-80
2023/03/02 04:30:12;;;;;;;33.22;20.58;;;205.00;2252.80;;;;;;5052336;28;20025;-81
2023/03/02 04:32:37;;;;;;;31.67;20.85;;;205.10;2252.80;;;;;;5051918;28;20025;-84
2023/03/02 04:35:04;;;;;;;37.00;23.55;;;205.10;2252.80;;;;;;5051922;28;20021;-81
2023/03/02 04:37:30;;;;;;;33.65;22.75;;;205.00;2252.80;;;;;;5052000;28;20123;-81
2023/03/02 04:39:56;;;;;;;34.35;22.40;;;205.00;2252.80;;;;;;5053649;28;20106;-80
2023/03/02 04:42:21;;;;;;;38.08;28.35;;;205.00;2252.80;;;;;;5057208;28;20025;-81
2023/03/02 04:44:47;;;;;;;33.97;24.27;;;205.00;2252.80;;;;;;5057230;28;20028;-80
2023/03/02 04:47:13;;;;;;;29.70;21.30;;;205.00;2252.80;;;;;;5055726;28;20055;-81
2023/03/02 04:49:39;;;;;;;40.92;31.20;;;204.90;2252.80;;;;;;5057658;28;20462;-83
2023/03/02 04:52:05;;;;;;;42.88;31.63;;;204.80;2252.80;;;;;;5074915;28;20031;-82
2023/03/02 04:54:31;;;;;;;41.00;32.20;;;204.80;2252.80;;;;;;5075074;28;20024;-80
2023/03/02 04:56:57;;;;;;;49.67;38.47;;;204.80;2252.80;;;;;;5076958;28;20024;-80
2023/03/02 04:59:26;;;;;;;49.35;37.03;;;204.80;2252.80;;;;;;5075455;28;20027;-81
2023/03/02 05:01:58;;;;;;;40.60;30.60;;;204.80;2252.80;;;;;;5075783;28;20075;-82
2023/03/02 05:04:24;;;;;;;32.00;24.42;;;204.80;2252.80;;;;;;5075715;28;20025;-81
2023/03/02 05:06:50;;;;;;;32.47;21.90;;;204.80;2252.80;;;;;;5075435;28;20123;-82
2023/03/02 05:09:16;;;;;;;31.60;20.85;;;204.80;2252.80;;;;;;5075367;28;20068;-81
2023/03/02 05:11:41;;;;;;;29.27;20.15;;;204.80;2252.80;;;;;;5075609;28;20024;-82
2023/03/02 05:14:10;;;;;;;28.45;19.88;;;204.90;2252.80;;;;;;5075264;28;20462;-80
2023/03/02 05:16:38;;;;;;;40.08;25.00;;;205.00;2252.80;;;;;;5075415;28;20035;-81
2023/03/02 05:19:06;;;;;;;35.75;24.75;;;205.00;2252.80;;;;;;5075318;28;20035;-81
2023/03/02 05:21:32;;;;;;;30.63;20.58;;;205.10;2252.80;;;;;;5074941;28;20036;-83
2023/03/02 05:23:58;;;;;;;32.17;23.20;;;205.10;2252.80;;;;;;5075270;28;20025;-84
2023/03/02 05:26:24;;;;;;;27.52;17.85;;;205.10;2252.80;;;;;;5075329;28;20028;-82
2023/03/02 05:28:49;;;;;;;28.92;19.50;;;204.90;2252.80;;;;;;5074973;28;20032;-82
2023/03/02 05:31:22;;;;;;;32.30;20.70;;;204.80;2252.80;;;;;;5076084;28;20020;-81
2023/03/02 05:33:48;;;;;;;23.10;16.50;;;204.90;2252.80;;;;;;5075265;28;20025;-80
2023/03/02 05:36:14;;;;;;;20.70;14.68;;;204.80;2252.80;;;;;;5074888;28;20432;-80
2023/03/02 05:38:40;;;;;;;19.88;12.95;;;204.80;2252.80;;;;;;5075027;28;20025;-82
2023/03/02 05:41:06;;;;;;;25.52;18.35;;;204.80;2252.80;;;;;;5075049;28;20090;-81
2023/03/02 05:43:32;;;;;;;26.98;16.38;;;204.80;2252.80;;;;;;5075807;28;20103;-81
2023/03/02 05:45:59;;;;;;;20.13;14.75;;;204.80;2252.80;;;;;;5075366;28;20028;-84
2023/03/02 05:48:29;;;;;;;19.25;13.30;;;204.80;2252.80;;;;;;5076652;28;20385;-83
2023/03/02 05:50:55;;;;;;;20.95;14.73;;;204.80;2252.80;;;;;;5083715;28;20028;-80
2023/03/02 05:53:21;;;;;;;29.13;18.45;;;204.80;2252.80;;;;;;5080357;28;20081;-82
2023/03/02 05:55:47;;;;;;;28.60;22.02;;;204.80;2252.80;;;;;;5074623;28;20034;-82
2023/03/02 05:58:16;;;;;;;30.80;21.55;;;204.90;2252.80;;;;;;5074548;28;20032;-82
2023/03/02 06:00:42;;;;;;;37.42;24.30;;;205.00;2252.80;;;;;;5074487;28;20037;-81
2023/03/02 06:03:08;;;;;;;47.75;30.52;;;205.00;2252.80;;;;;;5074468;28;20032;-81
2023/03/02 06:05:34;;;;;;;36.40;24.30;;;204.90;2252.80;;;;;;5074538;28;20028;-82
2023/03/02 06:08:00;;;;;;;32.83;22.80;;;204.90;2252.80;;;;;;5074344;28;20101;-79
2023/03/02 06:10:26;;;;;;;26.52;19.15;;;204.90;2252.80;;;;;;5074116;28;20032;-81
2023/03/02 06:12:52;;;;;;;26.02;19.20;;;205.00;2252.80;;;;;;5074479;28;20024;-81
2023/03/02 06:15:18;;;;;;;36.72;26.23;;;204.90;2252.80;;;;;;5074397;28;20432;-85
2023/03/02 06:17:44;;;;;;;35.53;24.92;;;205.00;2252.80;;;;;;5073864;28;20035;-82
2023/03/02 06:20:10;;;;;;;29.73;22.25;;;205.00;2252.80;;;;;;5074207;28;20028;-82
2023/03/02 06:22:40;;;;;;;26.77;18.55;;;205.10;2252.80;;;;;;5074032;28;20043;-79
2023/03/02 06:25:07;;;;;;;26.42;17.67;;;205.00;2252.80;;;;;;5073622;28;20032;-79
2023/03/02 06:27:33;;;;;;;23.38;14.43;;;205.00;2252.80;;;;;;5073793;28;20032;-80
2023/03/02 06:29:59;;;;;;;48.58;28.00;;;205.10;2252.80;;;;;;5075085;28;20016;-81
2023/03/02 06:32:24;;;;;;;55.65;39.05;;;205.10;2252.80;;;;;;5073681;28;20035;-77
2023/03/02 06:34:50;;;;;;;34.08;28.95;;;205.10;2252.80;;;;;;5075257;28;20077;-81
2023/03/02 06:37:16;;;;;;;60.30;39.00;;;205.10;2252.80;;;;;;5073742;28;20123;-80
2023/03/02 06:39:41;;;;;;;84.25;47.40;;;205.10;2252.80;;;;;;5073853;28;20031;-82
2023/03/02 06:42:07;;;;;;;56.15;33.60;;;205.20;2252.80;;;;;;5073830;28;20020;-79
2023/03/02 06:44:33;;;;;;;40.50;26.88;;;205.10;2252.80;;;;;;5073422;28;20031;-79
2023/03/02 06:46:58;;;;;;;40.47;31.95;;;205.10;2252.80;;;;;;5075070;28;20484;-84
2023/03/02 06:49:24;;;;;;;53.10;41.13;;;205.10;2252.80;;;;;;5073565;28;20381;-79
2023/03/02 06:51:50;;;;;;;52.05;38.53;;;205.10;2252.80;;;;;;5072425;28;20020;-83
2023/03/02 06:54:16;;;;;;;35.90;28.15;;;205.00;2252.80;;;;;;5072413;28;20028;-81
2023/03/02 06:56:41;;;;;;;34.65;25.52;;;205.00;2252.80;;;;;;5072674;28;20366;-82
2023/03/02 06:59:07;;;;;;;36.72;27.75;;;205.00;2252.80;;;;;;5072925;28;20028;-79
2023/03/02 07:01:34;;;;;;;46.08;34.13;;;205.00;2252.80;;;;;;5073147;28;20028;-80
2023/03/02 07:04:01;;;;;;;40.65;34.50;;;205.00;2252.80;;;;;;5071528;28;20029;-82
2023/03/02 07:06:27;;;;;;;37.92;27.17;;;205.00;2252.80;;;;;;5072856;28;20025;-79
2023/03/02 07:08:52;;;;;;;21.45;17.52;;;205.00;2252.80;;;;;;5072692;28;20102;-79
2023/03/02 07:11:18;;;;;;;29.13;23.20;;;205.00;2252.80;;;;;;5073194;28;20033;-78
2023/03/02 07:13:44;;;;;;;24.90;20.55;;;204.90;2252.80;;;;;;5072693;28;20326;-81
2023/03/02 07:16:12;;;;;;;31.08;26.17;;;205.00;2252.80;;;;;;5074334;28;20028;-80
2023/03/02 07:18:38;;;;;;;33.50;24.77;;;205.10;2252.80;;;;;;5074310;28;20120;-79
2023/03/02 07:21:05;;;;;;;22.55;16.83;;;205.00;2252.80;;;;;;5072642;28;20040;-78
2023/03/02 07:23:31;;;;;;;31.73;25.50;;;205.30;2252.80;;;;;;5072898;28;20036;-81
2023/03/02 07:25:57;;;;;;;32.17;21.75;;;205.10;2252.80;;;;;;5072856;28;20031;-80
2023/03/02 07:28:23;;;;;;;33.40;24.35;;;205.20;2252.80;;;;;;5072653;28;20470;-81
2023/03/02 07:30:52;;;;;;;29.30;21.80;;;205.20;2252.80;;;;;;5073720;28;20378;-80
2023/03/02 07:33:19;;;;;;;15.35;12.45;;;205.20;2252.80;;;;;;5072767;28;20025;-82
2023/03/02 07:35:45;;;;;;;19.73;14.80;;;205.20;2252.80;;;;;;5072792;28;20029;-81
2023/03/02 07:38:10;;;;;;;14.88;11.23;;;205.20;2252.80;;;;;;5072666;28;20033;-82
2023/03/02 07:40:42;;;;;;;15.98;11.75;;;205.20;2252.80;;;;;;5072445;28;20127;-78
2023/03/02 07:43:08;;;;;;;16.98;12.65;;;205.30;2252.80;;;;;;5072791;28;20025;-81
2023/03/02 07:45:35;;;;;;;15.90;10.40;;;205.30;2252.80;;;;;;5072590;28;20036;-80
2023/03/02 07:48:01;;;;;;;17.42;12.23;;;205.30;2252.80;;;;;;5072159;28;20517;-80
2023/03/02 07:50:26;;;;;;;17.30;12.88;;;205.40;2252.80;;;;;;5071873;28;20112;-81
2023/03/02 07:52:52;;;;;;;43.00;26.20;;;;;;;;;;5072511;28;20025;-81
2023/03/02 07:55:19;;;;;;;37.03;22.13;;;;;;;;;;5072950;28;20029;-80
2023/03/02 07:57:45;;;;;;;43.85;28.27;;;;;;;;;;5071717;28;20452;-83
2023/03/02 08:00:11;;;;;;;23.58;18.65;;;;;;;;;;5072304;28;20021;-79
2023/03/02 08:02:37;;;;;;;20.40;14.65;;;;;;;;;;5071433;28;20059;-82
2023/03/02 08:05:03;;;;;;;21.95;12.98;;;205.70;2252.80;;;;;;5072144;28;20021;-79
2023/03/02 08:07:29;;;;;;;17.63;15.30;;;;;;;;;;5073305;28;20049;-80
2023/03/02 08:09:56;;;;;;;17.92;13.63;;;;;;;;;;5073226;28;20505;-81
2023/03/02 08:12:22;;;;;;;21.38;16.95;;;;;;;;;;5073216;28;20482;-81
2023/03/02 08:14:48;;;;;;;21.77;14.95;;;205.70;2252.80;;;;;;5074667;28;20475;-82
2023/03/02 08:17:14;;;;;;;20.98;14.38;;;;;;;;;;5076226;28;20039;-82
2023/03/02 08:19:40;;;;;;;16.13;11.80;;;;;;;;;;5076379;28;20035;-80
2023/03/02 08:22:06;;;;;;;13.95;8.93;;;;;;;;;;5076391;28;20027;-79
2023/03/02 08:24:32;;;;;;;13.32;9.68;;;;;;;;;;5076156;28;20082;-82
2023/03/02 08:27:02;;;;;;;14.27;9.88;;;;;;;;;;5076313;28;20120;-82
2023/03/02 08:29:29;;;;;;;13.30;10.10;;;;;;;;;;5077342;28;20032;-77
2023/03/02 08:31:55;;;;;;;20.77;15.45;;;;;;;;;;5075870;28;20029;-78
2023/03/02 08:34:21;;;;;;;18.80;11.90;;;;;;;;;;5076042;28;20477;-80
2023/03/02 08:36:47;;;;;;;19.20;13.35;;;;;;;;;;5075743;28;20028;-79
2023/03/02 08:39:14;;;;;;;16.42;11.18;;;;;;;;;;5076953;28;20028;-79
2023/03/02 08:41:40;;;;;;;18.30;13.48;;;;;;;;;;5075896;28;20025;-80
2023/03/02 08:44:07;;;;;;;19.80;12.55;;;;;;;;;;5075762;28;20024;-80
2023/03/02 08:46:33;;;;;;;20.08;13.98;;;230.80;2252.80;;;;;;5076258;28;20024;-80
2023/03/02 08:48:59;;;;;;;24.10;15.88;;;230.70;2252.80;;;;;;5075931;28;20036;-79
2023/03/02 08:51:25;;;;;;;18.45;12.93;;;;;;;;;;5075898;28;20103;-79
2023/03/02 08:53:53;;;;;;;25.30;17.42;;;;;;;;;;5068492;28;20039;-79
2023/03/02 08:56:30;;;;;;;21.42;15.45;;;;;;;;;;5058034;28;20390;-78
2023/03/02 08:59:00;;;;;;;27.88;19.63;;;;;;;;;;5066536;28;20732;-78
2023/03/02 09:01:28;;;;;;;32.72;24.67;;;;;;;;;;5068474;28;20029;-78
2023/03/02 09:03:56;;;;;;;33.53;25.40;;;;;;;;;;5058923;28;20447;-80
2023/03/02 09:06:22;;;;;;;31.35;19.10;;;;;;;;;;5058245;28;20029;-79
2023/03/02 09:08:48;;;;;;;24.83;16.58;;;;;;;;;;5074736;28;20045;-79
2023/03/02 09:11:15;;;;;;;18.02;12.65;;;;;;;;;;5064124;28;20032;-78
2023/03/02 09:13:41;;;;;;;23.17;16.00;;;;;;;;;;5068864;28;20043;-79
2023/03/02 09:16:08;;;;;;;39.88;33.40;;;;;;;;;;5058063;28;20025;-77
2023/03/02 09:18:34;;;;;;;41.53;31.58;;;;;;;;;;5069265;28;20095;-79
2023/03/02 09:21:01;;;;;;;45.38;33.25;;;;;;;;;;5064730;28;20021;-77
2023/03/02 09:23:27;;;;;;;48.60;32.90;;;;;;;;;;5062288;28;20355;-76
2023/03/02 09:25:53;;;;;;;31.83;21.85;;;231.00;2252.80;;;;;;5070669;28;20420;-75
2023/03/02 09:28:22;;;;;;;32.38;21.48;;;230.90;2252.80;;;;;;5076014;28;20051;-76
2023/03/02 09:30:52;;;;;;;32.78;23.15;;;230.90;2252.80;;;;;;5074849;28;20526;-75
2023/03/02 09:33:19;;;;;;;39.05;27.83;;;230.80;2252.80;;;;;;5075335;28;20436;-76
2023/03/02 09:35:46;;;;;;;29.83;22.83;;;230.80;2252.80;;;;;;5074761;28;20042;-74
2023/03/02 09:38:15;;;;;;;46.20;36.55;;;230.80;2252.80;;;;;;5075914;28;20035;-75
2023/03/02 09:41:03;;;;;;;38.63;30.58;;;230.80;2252.80;;;;;;5074337;28;20028;-76
2023/03/02 09:43:41;;;;;;;43.78;31.10;;;230.90;2252.80;;;;;;5055087;28;20072;-75
2023/03/02 09:46:24;;;;;;;39.67;29.73;;;230.90;2252.80;;;;;;5074572;28;20024;-76
2023/03/02 09:49:08;;;;;;;;;;;231.00;2252.80;;;;;;5074980;28;20028;-77
2023/03/02 09:51:44;;;;;;;19.92;16.52;;;231.00;2252.80;;;;;;5069130;28;19913;-75
2023/03/02 09:54:22;;;;;;;19.83;13.32;;;230.80;2252.80;;;;;;5061565;28;20114;-76
2023/03/02 09:56:53;;;;;;;19.10;11.05;;;230.90;2252.80;;;;;;5071597;28;20033;-76
2023/03/02 09:59:38;;;;;;;20.55;12.85;;;230.90;2252.80;;;;;;5070386;28;20047;-76
2023/03/02 10:02:21;;;;;;;24.42;15.43;;;230.90;2252.80;;;;;;5074318;28;20067;-76
2023/03/02 10:04:50;;;;;;;20.48;15.07;;;230.90;2252.80;;;;;;5073836;28;20064;-77
2023/03/02 10:07:23;;;;;;;33.13;24.55;;;231.00;2252.80;;;;;;5075247;28;20021;-77
2023/03/02 10:09:48;;;;;;;;;;;231.00;2252.80;;;;;;5075999;28;20020;-79
2023/03/02 10:12:29;;;;;;;33.00;23.20;;;231.00;2252.80;;;;;;5091022;28;20053;-78
2023/03/02 10:15:03;;;;;;;24.83;19.00;;;231.00;2252.80;;;;;;5073639;28;20024;-78
2023/03/02 10:17:53;;;;;;;23.02;16.83;;;231.00;2252.80;;;;;;5075753;28;20021;-77
2023/03/02 10:20:30;;;;;;;24.92;19.88;;;231.00;2252.80;;;;;;5075639;28;20028;-80
2023/03/02 10:23:11;;;;;;;22.30;17.10;;;230.90;2252.80;;;;;;5073662;28;20029;-76
2023/03/02 10:25:40;;;;;;;40.38;27.25;;;231.10;2252.80;;;;;;5073978;28;20029;-81
2023/03/02 10:28:40;;;;;;;39.83;26.38;;;231.20;2252.80;;;;;;5072629;28;20061;-76
2023/03/02 10:31:16;;;;;;;49.13;30.50;;;256.00;2252.80;;;;;;5062561;28;20033;-80
2023/03/02 10:33:42;;;;;;;34.00;21.55;;;256.10;2252.80;;;;;;5072823;28;20021;-79
2023/03/02 10:36:23;;;;;;;31.13;20.83;;;256.20;2252.80;;;;;;5073353;28;20480;-78
2023/03/02 10:38:49;;;;;;;40.30;25.95;;;256.20;2252.80;;;;;;5072772;28;20056;-77
2023/03/02 10:41:21;;;;;;;44.38;30.38;;;256.00;2252.80;;;;;;5073638;28;20032;-81
2023/03/02 10:44:05;;;;;;;29.10;19.42;;;256.00;2252.80;;;;;;5073322;28;20470;-78
2023/03/02 10:46:42;;;;;;;32.60;21.70;;;256.10;2252.80;;;;;;5073526;28;20094;-80
2023/03/02 10:49:31;;;;;;;38.70;25.63;;;256.20;2252.80;;;;;;5074861;28;20055;-77
2023/03/02 10:52:14;;;;;;;40.88;25.70;;;256.20;2252.80;;;;;;5076136;28;20021;-80
2023/03/02 10:54:41;;;;;;;29.17;22.70;;;256.20;2252.80;;;;;;5074746;28;20461;-79
2023/03/02 10:57:29;;;;;;;30.30;25.15;;;256.10;2252.80;;;;;;5073520;28;20032;-79
2023/03/02 11:00:26;;;;;;;35.33;26.55;;;256.10;2252.80;;;;;;5073162;28;20040;-78
2023/03/02 11:02:56;;;;;;;32.35;26.50;;;256.10;2252.80;;;;;;5068884;28;20036;-80
2023/03/02 11:05:35;;;;;;;36.47;26.25;;;256.20;2252.80;;;;;;5073346;28;20499;-79
2023/03/02 11:08:02;;;;;;;46.22;30.60;;;256.20;2252.80;;;;;;5074667;28;20555;-79
2023/03/02 11:10:30;;;;;;;40.00;29.73;;;256.30;2252.80;;;;;;5074618;28;20021;-80
2023/03/02 11:12:58;;;;;;;44.35;30.95;;;256.30;2252.80;;;;;;5073253;28;20024;-82
2023/03/02 11:15:26;;;;;;;39.47;29.55;;;256.30;2252.80;;;;;;5073302;28;20086;-79
2023/03/02 11:18:17;;;;;;;31.02;24.23;;;256.30;2252.80;;;;;;5072723;28;20032;-79
2023/03/02 11:20:47;;;;;;;46.03;33.60;;;256.30;2252.80;;;;;;5054785;28;20036;-80
2023/03/02 11:23:13;;;;;;;42.47;29.50;;;256.40;2252.80;;;;;;5074970;28;20021;-80
2023/03/02 11:26:12;;;;;;;42.08;32.25;;;256.50;2252.80;;;;;;5073728;28;20046;-78
2023/03/02 11:29:03;;;;;;;26.42;19.60;;;256.70;2252.80;;;;;;5036470;28;20037;-76
2023/03/02 11:31:44;;;;;;;29.80;21.30;;;256.80;2252.80;;;;;;5072597;28;20157;-78
2023/03/02 11:34:23;;;;;;;47.00;28.10;;;256.80;2252.80;;;;;;5073643;28;20435;-78
2023/03/02 11:37:13;;;;;;;49.88;29.63;;;256.80;2252.80;;;;;;5072765;28;20430;-76
2023/03/02 11:39:48;;;;;;;54.28;30.55;;;256.80;2252.80;;;;;;5073591;28;20035;-79
2023/03/02 11:42:42;;;;;;;39.30;23.38;;;256.70;2252.80;;;;;;5072551;28;20480;-76
2023/03/02 11:45:16;;;;;;;48.90;29.65;;;256.60;2252.80;;;;;;5074066;28;20058;-76
2023/03/02 11:47:54;;;;;;;34.45;21.80;;;256.70;2252.80;;;;;;5072415;28;20036;-76
2023/03/02 11:50:21;;;;;;;28.65;20.08;;;256.70;2252.80;;;;;;5071758;28;20029;-75
2023/03/02 11:52:56;;;;;;;29.55;19.60;;;256.70;2252.80;;;;;;5073356;28;20067;-77
2023/03/02 11:55:25;;;;;;;27.38;18.20;;;256.70;2252.80;;;;;;5073089;28;20044;-76
2023/03/02 11:58:00;;;;;;;31.77;19.35;;;256.70;2252.80;;;;;;5071625;28;20044;-77
2023/03/02 12:00:37;;;;;;;36.35;25.83;;;256.60;2252.80;;;;;;5067229;28;20090;-77
2023/03/02 12:03:06;;;;;;;41.55;30.08;;;256.60;2252.80;;;;;;5072545;28;20159;-76
2023/03/02 12:05:38;;;;;;;48.35;29.63;;;256.60;2252.80;;;;;;5070889;28;20041;-77
2023/03/02 12:08:24;;;;;;;33.67;22.17;;;256.60;2252.80;;;;;;5068401;28;20063;-76
2023/03/02 12:10:59;;;;;;;45.28;31.10;;;256.60;2252.80;;;;;;5067905;28;20045;-78
2023/03/02 12:13:33;;;;;;;46.00;29.65;;;256.50;2252.80;;;;;;5052392;28;20029;-75
2023/03/02 12:15:59;;;;;;;37.10;25.13;;;256.60;2252.80;;;;;;5052310;28;20466;-79
2023/03/02 12:18:30;;;;;;;31.10;21.85;;;256.70;2252.80;;;;;;5068557;28;20041;-78
2023/03/02 12:21:02;;;;;;;33.55;23.63;;;256.70;2252.80;;;;;;5052528;28;20022;-78
2023/03/02 12:23:30;;;;;;;36.30;26.20;;;256.70;2252.80;;;;;;5052321;28;20025;-75
2023/03/02 12:26:20;;;;;;;34.08;24.67;;;256.70;2252.80;;;;;;5068566;28;20057;-78